Météo Nord-Pas-de-Calais   La météo au plus près de chez vous

Station météorologique

Observations météo à Bernay (27056)

27056003 166 m Dernier relevé à 08:12
10.9°C
Humidité 100 % Vent 4.3 km/h

Journée consultée

Mercredi 2 Septembre 2026

Synthèse de la journée

Périodes de référence en UTC

Température maximale

10.9°C

à 08:12

06h 06h

Température minimale

9.1°C

à 08:00

18h 18h

Rafale maximale

9 km/h

à 08:12

00h 00h

Précipitations

0 mm

Cumul quotidien

06h 06h

Ensoleillement

0h 22 mins

Durée quotidienne

00h 00h

Graphiques de la journée

Heure locale Réduire

Données détaillées

Relevés météo

Pas de 6 minutes Afficher les relevés infra-horaires
Relevés météo détaillés à Bernay pour le Mercredi 2 Septembre 2026
Heure Température °C Point de rosée °C Humidité % Vent moyen (raf.), km/h Précipitations mm Ensoleillement min Rayonnement global W/m²
08:12 10.9 °C 10.3 °C 96 % 5 km/h (9 km/h) 0 mm0 mm 0 min 15.9 W/m²
08:06 10.8 °C 10.3 °C 97 % 5 km/h (8 km/h) 0 mm0 mm 1 min 16.8 W/m²
08:00 10.8 °C 10.5 °C 98 % 5 km/h (9 km/h) 0 mm0 mm 6 min 22.6 W/m²
07:54 10.4 °C 10.2 °C 99 % 5 km/h (8 km/h) 0 mm0 mm 6 min 19.4 W/m²
07:48 10.2 °C 10.2 °C 100 % 5 km/h (8 km/h) 0 mm0 mm 6 min 14.1 W/m²
07:42 10.1 °C 10.1 °C 100 % 6 km/h (8 km/h) 0 mm0 mm 3 min 11.5 W/m²
07:36 9.8 °C 9.8 °C 100 % 5 km/h (7 km/h) 0 mm0 mm 0 min 5.6 W/m²
07:30 9.3 °C 9.3 °C 100 % 4 km/h (6 km/h) 0 mm0 mm 0 min 0 W/m²
07:24 9.3 °C 9.3 °C 100 % 4 km/h (6 km/h) 0 mm0 mm 0 min 0 W/m²
07:18 9.4 °C 9.4 °C 100 % 5 km/h (6 km/h) 0 mm0 mm 0 min 0 W/m²
07:12 9.3 °C 9.3 °C 100 % 4 km/h (6 km/h) 0 mm0 mm 0 min 0 W/m²
07:06 9.2 °C 9.2 °C 100 % 4 km/h (6 km/h) 0 mm0 mm 0 min 0 W/m²
07:00 9.4 °C 9.4 °C 100 % 4 km/h (6 km/h) 0 mm0 mm 0 min 0 W/m²
06:54 9.4 °C 9.4 °C 100 % 4 km/h (5 km/h) 0 mm0 mm 0 min 0 W/m²
06:48 9.3 °C 9.3 °C 100 % 3 km/h (4 km/h) 0 mm0 mm 0 min 0 W/m²
06:42 9.4 °C 9.4 °C 100 % 3 km/h (4 km/h) 0 mm0 mm 0 min 0 W/m²
06:36 9.3 °C 9.3 °C 100 % 4 km/h (6 km/h) 0 mm0 mm 0 min 0 W/m²
06:30 9.5 °C 9.5 °C 100 % 5 km/h (6 km/h) 0 mm0 mm 0 min 0 W/m²
06:24 9.4 °C 9.3 °C 99 % 5 km/h (6 km/h) 0 mm0 mm 0 min 0 W/m²
06:18 9.3 °C 9 °C 98 % 4 km/h (5 km/h) 0 mm0 mm 0 min 0 W/m²
06:12 9.4 °C 9.1 °C 98 % 4 km/h (5 km/h) 0 mm0 mm 0 min 0 W/m²
06:06 9.7 °C 9.6 °C 99 % 4 km/h (5 km/h) 0 mm0 mm 0 min 0 W/m²
06:00 9.9 °C 9.9 °C 100 % 5 km/h (6 km/h) 0 mm0 mm 0 min 0 W/m²
05:54 9.8 °C 9.8 °C 100 % 5 km/h (6 km/h) 0 mm0 mm 0 min 0 W/m²
05:48 9.8 °C 9.8 °C 100 % 5 km/h (7 km/h) 0 mm0 mm 0 min 0 W/m²
05:42 9.7 °C 9.7 °C 100 % 4 km/h (6 km/h) 0 mm0 mm 0 min 0 W/m²
05:36 9.8 °C 9.8 °C 100 % 5 km/h (7 km/h) 0 mm0 mm 0 min 0 W/m²
05:30 9.4 °C 9.3 °C 99 % 5 km/h (7 km/h) 0 mm0 mm 0 min 0 W/m²
05:24 9.4 °C 9.3 °C 99 % 4 km/h (5 km/h) 0 mm0 mm 0 min 0 W/m²
05:18 9.5 °C 9.4 °C 99 % 4 km/h (5 km/h) 0 mm0 mm 0 min 0 W/m²
05:12 9.6 °C 9.5 °C 99 % 3 km/h (5 km/h) 0 mm0 mm 0 min 0 W/m²
05:06 9.7 °C 9.6 °C 99 % 3 km/h (4 km/h) 0 mm0 mm 0 min 0 W/m²
05:00 9.8 °C 9.7 °C 99 % 3 km/h (4 km/h) 0 mm0 mm 0 min 0 W/m²
04:54 9.9 °C 9.7 °C 99 % 3 km/h (4 km/h) 0 mm0 mm 0 min 0 W/m²
04:48 10 °C 10 °C 100 % 3 km/h (4 km/h) 0 mm0 mm 0 min 0 W/m²
04:42 10 °C 10 °C 100 % 0 km/h (3 km/h) 0 mm0 mm 0 min 0 W/m²
04:36 10.2 °C 10.2 °C 100 % 2 km/h (4 km/h) 0 mm0 mm 0 min 0 W/m²
04:30 10.1 °C 9.9 °C 99 % 2 km/h (4 km/h) 0 mm0 mm 0 min 0 W/m²
04:24 10 °C 9.7 °C 98 % 3 km/h (4 km/h) 0 mm0 mm 0 min 0 W/m²
04:18 10.1 °C 9.8 °C 98 % 3 km/h (4 km/h) 0 mm0 mm 0 min 0 W/m²
04:12 10.2 °C 9.7 °C 97 % 3 km/h (4 km/h) 0 mm0 mm 0 min 0 W/m²
04:06 10.3 °C 9.8 °C 97 % 3 km/h (4 km/h) 0 mm0 mm 0 min 0 W/m²
04:00 10.4 °C 9.9 °C 97 % 3 km/h (6 km/h) 0 mm0 mm 0 min 0 W/m²
03:54 10.5 °C 10 °C 97 % 4 km/h (6 km/h) 0 mm0 mm 0 min 0 W/m²
03:48 10.7 °C 10.2 °C 97 % 3 km/h (6 km/h) 0 mm0 mm 0 min 0 W/m²
03:42 10.9 °C 10.4 °C 97 % 2 km/h (4 km/h) 0 mm0 mm 0 min 0 W/m²
03:36 11.1 °C 10.8 °C 98 % 3 km/h (4 km/h) 0 mm0 mm 0 min 0 W/m²
03:30 11 °C 10.5 °C 97 % 0 km/h (3 km/h) 0 mm0 mm 0 min 0 W/m²
03:24 11.2 °C 10.9 °C 98 % 2 km/h (4 km/h) 0 mm0 mm 0 min 0 W/m²
03:18 11.3 °C 11 °C 98 % 3 km/h (5 km/h) 0 mm0 mm 0 min 0 W/m²
03:12 11.2 °C 10.9 °C 98 % 3 km/h (5 km/h) 0 mm0 mm 0 min 0 W/m²
03:06 11.1 °C 10.8 °C 98 % 3 km/h (4 km/h) 0 mm0 mm 0 min 0 W/m²
03:00 11.1 °C 10.6 °C 97 % 0 km/h (3 km/h) 0 mm0 mm 0 min 0 W/m²
02:54 11.2 °C 10.7 °C 97 % 2 km/h (6 km/h) 0 mm0 mm 0 min 0 W/m²
02:48 11.2 °C 10.6 °C 96 % 4 km/h (6 km/h) 0 mm0 mm 0 min 0 W/m²
02:42 11.3 °C 10.8 °C 97 % 4 km/h (6 km/h) 0 mm0 mm 0 min 0 W/m²
02:36 11.3 °C 10.7 °C 96 % 4 km/h (6 km/h) 0 mm0 mm 0 min 0 W/m²
02:30 11.4 °C 10.6 °C 95 % 4 km/h (6 km/h) 0 mm0 mm 0 min 0 W/m²
02:24 11.5 °C 10.7 °C 95 % 4 km/h (7 km/h) 0 mm0 mm 0 min 0 W/m²
02:18 11.6 °C 11 °C 96 % 5 km/h (7 km/h) 0 mm0 mm 0 min 0 W/m²
02:12 11.6 °C 11 °C 96 % 6 km/h (7 km/h) 0 mm0 mm 0 min 0 W/m²
02:06 11.7 °C 11.2 °C 97 % 6 km/h (8 km/h) 0 mm0 mm 0 min 0 W/m²
02:00 11.5 °C 10.9 °C 96 % 6 km/h (8 km/h) 0 mm0 mm 0 min 0 W/m²
01:54 11.6 °C 10.8 °C 95 % 4 km/h (6 km/h) 0 mm0 mm 0 min 0 W/m²
01:48 11.7 °C 10.9 °C 95 % 3 km/h (6 km/h) 0 mm0 mm 0 min 0 W/m²
01:42 11.8 °C 11 °C 95 % 3 km/h (5 km/h) 0 mm0 mm 0 min 0 W/m²
01:36 11.8 °C 11 °C 95 % 2 km/h (4 km/h) 0 mm0 mm 0 min 0 W/m²
01:30 11.9 °C 11 °C 94 % 3 km/h (5 km/h) 0 mm0 mm 0 min 0 W/m²
01:24 12.1 °C 11 °C 93 % 4 km/h (5 km/h) 0 mm0 mm 0 min 0 W/m²
01:18 12.2 °C 11.3 °C 94 % 4 km/h (6 km/h) 0 mm0 mm 0 min 0 W/m²
01:12 12.2 °C 11.1 °C 93 % 5 km/h (6 km/h) 0 mm0 mm 0 min 0 W/m²
01:06 12.1 °C 11.2 °C 94 % 4 km/h (6 km/h) 0 mm0 mm 0 min 0 W/m²
01:00 12.2 °C 10.9 °C 92 % 3 km/h (4 km/h) 0 mm0 mm 0 min 0 W/m²
00:54 12.3 °C 10.9 °C 91 % 2 km/h (3 km/h) 0 mm0 mm 0 min 0 W/m²
00:48 12.5 °C 11.1 °C 91 % 2 km/h (3 km/h) 0 mm0 mm 0 min 0 W/m²
00:42 12.6 °C 11.2 °C 91 % 2 km/h (3 km/h) 0 mm0 mm 0 min 0 W/m²
00:36 12.7 °C 11.3 °C 91 % 0 km/h (3 km/h) 0 mm0 mm 0 min 0 W/m²
00:30 12.8 °C 11.2 °C 90 % 2 km/h (3 km/h) 0 mm0 mm 0 min 0 W/m²
00:24 13 °C 11.2 °C 89 % 3 km/h (5 km/h) 0 mm0 mm 0 min 0 W/m²
00:18 13.1 °C 11.3 °C 89 % 4 km/h (6 km/h) 0 mm0 mm 0 min 0 W/m²
00:12 13.1 °C 11.2 °C 88 % 4 km/h (6 km/h) 0 mm0 mm 0 min 0 W/m²
00:06 13.3 °C 11.4 °C 88 % 4 km/h (5 km/h) 0 mm0 mm 0 min 0 W/m²
00:00 13.4 °C 11.5 °C 88 % 4 km/h (5 km/h) 0 mm0 mm 0 min 0 W/m²

Données via Météo-France

Relevés météo à Bernay

Cette page rassemble les observations de la station de Bernay : température, humidité, vent, précipitations et pression atmosphérique. Les graphiques facilitent le suivi de la journée, tandis que le tableau donne accès aux mesures horaires et infra-horaires disponibles.

Pour replacer ces mesures dans leur contexte, consultez la climatologie de Bernay ainsi que ses normales et records. Retrouvez aussi la carte des observations météo en temps réel.